OEMA

Prince Mohammad Bin Abdulaziz Airport

Medina, Saudi Arabia
TAF OEMA 180500Z 1806/1912 29014KT CAVOK BECMG 1818/1820 24006KT
Issued Valid From Valid To
Aug-18 @ 05:00 UTC
(4 hours ago)
Aug-18 @ 06:00 UTC
(3 hours ago)
Aug-19 @ 12:00 UTC
(-1 days ago)
Aug-18 @ 06:00 to Aug-18 @ 18:00
TAF OEMA 180500Z 1806/1912 29014KT CAVOK
Wind Visibility Clouds Conditions
290° at 14 knots 10,000+ meters
  • No significant clouds
Becoming Aug-18 @ 18:00 to Aug-19 @ 12:00
BECMG 1818/1820 24006KT
Wind Visibility Clouds Conditions
240° at 6 knots 10,000+ meters
  • No significant clouds
TAF OEMA 180500Z 1806/1912 29014KT CAVOK BECMG 1818/1820 24006KT
Issued Aug-18 @ 05:00 UTC
(4 hours ago)
Valid From Aug-18 @ 06:00 UTC
(3 hours ago)
Valid To Aug-19 @ 12:00 UTC
(-1 days ago)
Aug-18 @ 06:00 - Aug-18 @ 18:00
Wind Visibility
290° at 14 knots 10,000+ meters
Clouds
  • No significant clouds
Conditions
Becoming Aug-18 @ 18:00 - Aug-19 @ 12:00
Wind Visibility
240° at 6 knots 10,000+ meters
Clouds
  • No significant clouds
Conditions